sensor_id;sensor_type;location;lat;lon;timestamp;temperature;humidity
23717;DHT22;22094;52.130;5.598;2023-11-21T00:02:15;6.50;99.90
23717;DHT22;22094;52.130;5.598;2023-11-21T00:04:40;6.60;99.90
23717;DHT22;22094;52.130;5.598;2023-11-21T00:07:06;6.60;99.90
23717;DHT22;22094;52.130;5.598;2023-11-21T00:09:32;6.70;99.90
23717;DHT22;22094;52.130;5.598;2023-11-21T00:11:58;6.70;99.90
23717;DHT22;22094;52.130;5.598;2023-11-21T00:14:25;6.60;99.90
23717;DHT22;22094;52.130;5.598;2023-11-21T00:16:50;6.50;99.90
23717;DHT22;22094;52.130;5.598;2023-11-21T00:19:16;6.40;99.90
23717;DHT22;22094;52.130;5.598;2023-11-21T00:21:42;6.40;99.90
23717;DHT22;22094;52.130;5.598;2023-11-21T00:24:10;6.30;99.90
23717;DHT22;22094;52.130;5.598;2023-11-21T00:26:35;6.30;99.90
23717;DHT22;22094;52.130;5.598;2023-11-21T00:29:03;6.30;99.90
23717;DHT22;22094;52.130;5.598;2023-11-21T00:31:29;6.30;99.90
23717;DHT22;22094;52.130;5.598;2023-11-21T00:33:56;6.70;99.90
23717;DHT22;22094;52.130;5.598;2023-11-21T00:36:21;6.30;99.90
23717;DHT22;22094;52.130;5.598;2023-11-21T00:38:47;6.30;99.90
23717;DHT22;22094;52.130;5.598;2023-11-21T00:41:13;6.40;99.90
23717;DHT22;22094;52.130;5.598;2023-11-21T00:43:39;6.50;99.90
23717;DHT22;22094;52.130;5.598;2023-11-21T00:46:05;6.40;99.90
23717;DHT22;22094;52.130;5.598;2023-11-21T00:48:33;6.40;99.90
23717;DHT22;22094;52.130;5.598;2023-11-21T00:50:58;6.40;99.90
23717;DHT22;22094;52.130;5.598;2023-11-21T00:53:24;6.40;99.90
23717;DHT22;22094;52.130;5.598;2023-11-21T00:55:50;6.40;99.90
23717;DHT22;22094;52.130;5.598;2023-11-21T00:58:17;6.40;99.90
23717;DHT22;22094;52.130;5.598;2023-11-21T01:00:43;6.40;99.90
23717;DHT22;22094;52.130;5.598;2023-11-21T01:03:09;6.80;99.90
23717;DHT22;22094;52.130;5.598;2023-11-21T01:05:34;6.50;99.90
23717;DHT22;22094;52.130;5.598;2023-11-21T01:08:00;6.50;99.90
23717;DHT22;22094;52.130;5.598;2023-11-21T01:10:25;6.60;99.90
23717;DHT22;22094;52.130;5.598;2023-11-21T01:12:51;6.60;99.90
23717;DHT22;22094;52.130;5.598;2023-11-21T01:15:16;6.70;99.90
23717;DHT22;22094;52.130;5.598;2023-11-21T01:17:42;7.20;99.90
23717;DHT22;22094;52.130;5.598;2023-11-21T01:20:08;6.80;99.90
23717;DHT22;22094;52.130;5.598;2023-11-21T01:22:38;6.90;99.90
23717;DHT22;22094;52.130;5.598;2023-11-21T01:25:05;7.40;99.90
23717;DHT22;22094;52.130;5.598;2023-11-21T01:27:36;7.00;99.90
23717;DHT22;22094;52.130;5.598;2023-11-21T01:30:03;7.00;99.90
23717;DHT22;22094;52.130;5.598;2023-11-21T01:32:29;7.00;99.90
23717;DHT22;22094;52.130;5.598;2023-11-21T01:34:55;7.00;99.90
23717;DHT22;22094;52.130;5.598;2023-11-21T01:37:21;7.00;99.90
23717;DHT22;22094;52.130;5.598;2023-11-21T01:39:47;7.00;99.90
23717;DHT22;22094;52.130;5.598;2023-11-21T01:42:13;6.90;99.90
23717;DHT22;22094;52.130;5.598;2023-11-21T01:44:39;6.90;99.90
23717;DHT22;22094;52.130;5.598;2023-11-21T01:47:06;6.90;99.90
23717;DHT22;22094;52.130;5.598;2023-11-21T01:49:35;6.90;99.90
23717;DHT22;22094;52.130;5.598;2023-11-21T01:52:01;6.80;99.90
23717;DHT22;22094;52.130;5.598;2023-11-21T01:54:28;6.80;99.90
23717;DHT22;22094;52.130;5.598;2023-11-21T01:57:00;6.90;99.90
23717;DHT22;22094;52.130;5.598;2023-11-21T01:59:35;6.90;99.90
23717;DHT22;22094;52.130;5.598;2023-11-21T02:02:02;7.00;99.90
23717;DHT22;22094;52.130;5.598;2023-11-21T02:04:30;6.90;99.90
23717;DHT22;22094;52.130;5.598;2023-11-21T02:06:57;6.90;99.90
23717;DHT22;22094;52.130;5.598;2023-11-21T02:09:26;6.80;99.90
23717;DHT22;22094;52.130;5.598;2023-11-21T02:11:53;6.90;99.90
23717;DHT22;22094;52.130;5.598;2023-11-21T02:14:19;6.90;99.90
23717;DHT22;22094;52.130;5.598;2023-11-21T02:16:48;7.10;99.90
23717;DHT22;22094;52.130;5.598;2023-11-21T02:19:18;7.00;99.90
23717;DHT22;22094;52.130;5.598;2023-11-21T02:21:45;7.00;99.90
23717;DHT22;22094;52.130;5.598;2023-11-21T02:24:13;7.00;99.90
23717;DHT22;22094;52.130;5.598;2023-11-21T02:26:39;7.10;99.90
23717;DHT22;22094;52.130;5.598;2023-11-21T02:29:04;7.10;99.90
23717;DHT22;22094;52.130;5.598;2023-11-21T02:31:30;7.10;99.90
23717;DHT22;22094;52.130;5.598;2023-11-21T02:33:58;7.20;99.90
23717;DHT22;22094;52.130;5.598;2023-11-21T02:36:24;7.30;99.90
23717;DHT22;22094;52.130;5.598;2023-11-21T02:38:49;7.30;99.90
23717;DHT22;22094;52.130;5.598;2023-11-21T02:41:15;7.30;99.90
23717;DHT22;22094;52.130;5.598;2023-11-21T02:43:41;7.40;99.90
23717;DHT22;22094;52.130;5.598;2023-11-21T02:46:06;7.70;99.90
23717;DHT22;22094;52.130;5.598;2023-11-21T02:48:33;7.40;99.90
23717;DHT22;22094;52.130;5.598;2023-11-21T02:50:59;7.50;99.90
23717;DHT22;22094;52.130;5.598;2023-11-21T02:53:24;7.50;99.90
23717;DHT22;22094;52.130;5.598;2023-11-21T02:55:51;7.90;99.90
23717;DHT22;22094;52.130;5.598;2023-11-21T02:58:17;7.50;99.90
23717;DHT22;22094;52.130;5.598;2023-11-21T03:00:42;7.70;99.90
23717;DHT22;22094;52.130;5.598;2023-11-21T03:03:08;7.50;99.90
23717;DHT22;22094;52.130;5.598;2023-11-21T03:05:33;7.50;99.90
23717;DHT22;22094;52.130;5.598;2023-11-21T03:08:01;7.60;99.90
23717;DHT22;22094;52.130;5.598;2023-11-21T03:10:26;7.60;99.90
23717;DHT22;22094;52.130;5.598;2023-11-21T03:12:52;7.50;99.90
23717;DHT22;22094;52.130;5.598;2023-11-21T03:15:18;7.60;99.90
23717;DHT22;22094;52.130;5.598;2023-11-21T03:17:44;7.60;99.90
23717;DHT22;22094;52.130;5.598;2023-11-21T03:20:10;7.50;99.90
23717;DHT22;22094;52.130;5.598;2023-11-21T03:22:36;7.50;99.90
23717;DHT22;22094;52.130;5.598;2023-11-21T03:25:03;7.60;99.90
23717;DHT22;22094;52.130;5.598;2023-11-21T03:27:30;7.60;99.90
23717;DHT22;22094;52.130;5.598;2023-11-21T03:29:55;7.60;99.90
23717;DHT22;22094;52.130;5.598;2023-11-21T03:32:21;7.60;99.90
23717;DHT22;22094;52.130;5.598;2023-11-21T03:34:57;7.60;99.90
23717;DHT22;22094;52.130;5.598;2023-11-21T03:37:24;7.60;99.90
23717;DHT22;22094;52.130;5.598;2023-11-21T03:39:50;7.60;99.90
23717;DHT22;22094;52.130;5.598;2023-11-21T03:42:16;7.60;99.90
23717;DHT22;22094;52.130;5.598;2023-11-21T03:44:41;7.80;99.90
23717;DHT22;22094;52.130;5.598;2023-11-21T03:47:07;8.00;99.90
23717;DHT22;22094;52.130;5.598;2023-11-21T03:49:32;7.70;99.90
23717;DHT22;22094;52.130;5.598;2023-11-21T03:51:58;7.70;99.90
23717;DHT22;22094;52.130;5.598;2023-11-21T03:54:24;7.70;99.90
23717;DHT22;22094;52.130;5.598;2023-11-21T03:56:49;8.10;99.90
23717;DHT22;22094;52.130;5.598;2023-11-21T03:59:15;7.80;99.90
23717;DHT22;22094;52.130;5.598;2023-11-21T04:01:41;8.10;99.90
23717;DHT22;22094;52.130;5.598;2023-11-21T04:04:06;7.90;99.90
23717;DHT22;22094;52.130;5.598;2023-11-21T04:06:32;8.10;99.90
23717;DHT22;22094;52.130;5.598;2023-11-21T04:08:58;7.90;99.90
23717;DHT22;22094;52.130;5.598;2023-11-21T04:11:24;7.90;99.90
23717;DHT22;22094;52.130;5.598;2023-11-21T04:13:49;7.90;99.90
23717;DHT22;22094;52.130;5.598;2023-11-21T04:16:15;8.00;99.90
23717;DHT22;22094;52.130;5.598;2023-11-21T04:18:41;8.00;99.90
23717;DHT22;22094;52.130;5.598;2023-11-21T04:21:06;8.00;99.90
23717;DHT22;22094;52.130;5.598;2023-11-21T04:23:33;8.00;99.90
23717;DHT22;22094;52.130;5.598;2023-11-21T04:25:59;8.00;99.90
23717;DHT22;22094;52.130;5.598;2023-11-21T04:28:25;8.00;99.90
23717;DHT22;22094;52.130;5.598;2023-11-21T04:30:51;8.00;99.90
23717;DHT22;22094;52.130;5.598;2023-11-21T04:33:16;8.00;99.90
23717;DHT22;22094;52.130;5.598;2023-11-21T04:35:42;8.00;99.90
23717;DHT22;22094;52.130;5.598;2023-11-21T04:38:08;8.10;99.90
23717;DHT22;22094;52.130;5.598;2023-11-21T04:40:33;8.40;99.90
23717;DHT22;22094;52.130;5.598;2023-11-21T04:42:59;8.10;99.90
23717;DHT22;22094;52.130;5.598;2023-11-21T04:45:24;8.20;99.90
23717;DHT22;22094;52.130;5.598;2023-11-21T04:47:50;8.10;99.90
23717;DHT22;22094;52.130;5.598;2023-11-21T04:50:17;8.10;99.90
23717;DHT22;22094;52.130;5.598;2023-11-21T04:52:42;8.10;99.90
23717;DHT22;22094;52.130;5.598;2023-11-21T04:55:08;8.20;99.90
23717;DHT22;22094;52.130;5.598;2023-11-21T04:57:36;8.20;99.90
23717;DHT22;22094;52.130;5.598;2023-11-21T05:00:02;8.20;99.90
23717;DHT22;22094;52.130;5.598;2023-11-21T05:02:57;8.50;99.90
23717;DHT22;22094;52.130;5.598;2023-11-21T05:05:23;8.30;99.90
23717;DHT22;22094;52.130;5.598;2023-11-21T05:07:49;8.30;99.90
23717;DHT22;22094;52.130;5.598;2023-11-21T05:10:15;8.20;99.90
23717;DHT22;22094;52.130;5.598;2023-11-21T05:12:41;8.50;99.90
23717;DHT22;22094;52.130;5.598;2023-11-21T05:15:08;8.70;99.90
23717;DHT22;22094;52.130;5.598;2023-11-21T05:17:39;8.30;99.90
23717;DHT22;22094;52.130;5.598;2023-11-21T05:20:08;8.30;99.90
23717;DHT22;22094;52.130;5.598;2023-11-21T05:22:35;8.30;99.90
23717;DHT22;22094;52.130;5.598;2023-11-21T05:25:02;8.50;99.90
23717;DHT22;22094;52.130;5.598;2023-11-21T05:27:29;8.40;99.90
23717;DHT22;22094;52.130;5.598;2023-11-21T05:29:55;8.80;99.90
23717;DHT22;22094;52.130;5.598;2023-11-21T05:32:20;8.90;99.90
23717;DHT22;22094;52.130;5.598;2023-11-21T05:34:46;8.50;99.90
23717;DHT22;22094;52.130;5.598;2023-11-21T05:37:12;8.50;99.90
23717;DHT22;22094;52.130;5.598;2023-11-21T05:39:37;8.50;99.90
23717;DHT22;22094;52.130;5.598;2023-11-21T05:42:03;8.70;99.90
23717;DHT22;22094;52.130;5.598;2023-11-21T05:44:29;8.50;99.90
23717;DHT22;22094;52.130;5.598;2023-11-21T05:46:55;8.90;99.90
23717;DHT22;22094;52.130;5.598;2023-11-21T05:49:20;8.60;99.90
23717;DHT22;22094;52.130;5.598;2023-11-21T05:51:47;8.60;99.90
23717;DHT22;22094;52.130;5.598;2023-11-21T05:54:13;8.60;99.90
23717;DHT22;22094;52.130;5.598;2023-11-21T05:56:38;8.60;99.90
23717;DHT22;22094;52.130;5.598;2023-11-21T05:59:04;8.60;99.90
23717;DHT22;22094;52.130;5.598;2023-11-21T06:01:29;8.70;99.90
23717;DHT22;22094;52.130;5.598;2023-11-21T06:03:55;8.60;99.90
23717;DHT22;22094;52.130;5.598;2023-11-21T06:06:21;8.60;99.90
23717;DHT22;22094;52.130;5.598;2023-11-21T06:08:48;8.60;99.90
23717;DHT22;22094;52.130;5.598;2023-11-21T06:11:14;8.70;99.90
23717;DHT22;22094;52.130;5.598;2023-11-21T06:13:41;8.70;99.90
23717;DHT22;22094;52.130;5.598;2023-11-21T06:16:07;8.70;99.90
23717;DHT22;22094;52.130;5.598;2023-11-21T06:18:33;8.80;99.90
23717;DHT22;22094;52.130;5.598;2023-11-21T06:20:58;8.80;99.90
23717;DHT22;22094;52.130;5.598;2023-11-21T06:23:26;8.80;99.90
23717;DHT22;22094;52.130;5.598;2023-11-21T06:25:51;8.70;99.90
23717;DHT22;22094;52.130;5.598;2023-11-21T06:28:18;8.70;99.90
23717;DHT22;22094;52.130;5.598;2023-11-21T06:30:43;8.80;99.90
23717;DHT22;22094;52.130;5.598;2023-11-21T06:33:10;8.80;99.90
23717;DHT22;22094;52.130;5.598;2023-11-21T06:35:36;8.80;99.90
23717;DHT22;22094;52.130;5.598;2023-11-21T06:38:02;8.90;99.90
23717;DHT22;22094;52.130;5.598;2023-11-21T06:40:28;8.90;99.90
23717;DHT22;22094;52.130;5.598;2023-11-21T06:42:53;9.30;99.90
23717;DHT22;22094;52.130;5.598;2023-11-21T06:45:19;9.00;99.90
23717;DHT22;22094;52.130;5.598;2023-11-21T06:47:45;8.90;99.90
23717;DHT22;22094;52.130;5.598;2023-11-21T06:50:11;8.90;99.90
23717;DHT22;22094;52.130;5.598;2023-11-21T06:52:37;8.90;99.90
23717;DHT22;22094;52.130;5.598;2023-11-21T06:55:03;9.00;99.90
23717;DHT22;22094;52.130;5.598;2023-11-21T06:57:28;9.00;99.90
23717;DHT22;22094;52.130;5.598;2023-11-21T06:59:54;9.00;99.90
23717;DHT22;22094;52.130;5.598;2023-11-21T07:02:20;9.00;99.90
23717;DHT22;22094;52.130;5.598;2023-11-21T07:04:46;9.10;99.90
23717;DHT22;22094;52.130;5.598;2023-11-21T07:07:12;9.00;99.90
23717;DHT22;22094;52.130;5.598;2023-11-21T07:09:38;9.10;99.90
23717;DHT22;22094;52.130;5.598;2023-11-21T07:12:04;9.10;99.90
23717;DHT22;22094;52.130;5.598;2023-11-21T07:14:35;9.10;99.90
23717;DHT22;22094;52.130;5.598;2023-11-21T07:17:02;9.00;99.90
23717;DHT22;22094;52.130;5.598;2023-11-21T07:19:28;9.10;99.90
23717;DHT22;22094;52.130;5.598;2023-11-21T07:21:54;9.10;99.90
23717;DHT22;22094;52.130;5.598;2023-11-21T07:24:20;9.10;99.90
23717;DHT22;22094;52.130;5.598;2023-11-21T07:26:46;9.10;99.90
23717;DHT22;22094;52.130;5.598;2023-11-21T07:29:13;9.20;99.90
23717;DHT22;22094;52.130;5.598;2023-11-21T07:31:38;9.20;99.90
23717;DHT22;22094;52.130;5.598;2023-11-21T07:34:05;9.20;99.90
23717;DHT22;22094;52.130;5.598;2023-11-21T07:36:31;9.20;99.90
23717;DHT22;22094;52.130;5.598;2023-11-21T07:38:56;9.40;99.90
23717;DHT22;22094;52.130;5.598;2023-11-21T07:41:22;9.20;99.90
23717;DHT22;22094;52.130;5.598;2023-11-21T07:43:48;9.30;99.90
23717;DHT22;22094;52.130;5.598;2023-11-21T07:46:14;9.30;99.90
23717;DHT22;22094;52.130;5.598;2023-11-21T07:48:41;9.30;99.90
23717;DHT22;22094;52.130;5.598;2023-11-21T07:51:07;9.30;99.90
23717;DHT22;22094;52.130;5.598;2023-11-21T07:53:34;9.30;99.90
23717;DHT22;22094;52.130;5.598;2023-11-21T07:56:08;9.30;99.90
23717;DHT22;22094;52.130;5.598;2023-11-21T07:58:35;9.30;99.90
23717;DHT22;22094;52.130;5.598;2023-11-21T08:01:01;9.40;99.90
23717;DHT22;22094;52.130;5.598;2023-11-21T08:03:27;9.40;99.90
23717;DHT22;22094;52.130;5.598;2023-11-21T08:05:55;9.80;99.90
23717;DHT22;22094;52.130;5.598;2023-11-21T08:08:21;9.40;99.90
23717;DHT22;22094;52.130;5.598;2023-11-21T08:10:47;9.40;99.90
23717;DHT22;22094;52.130;5.598;2023-11-21T08:13:13;9.40;99.90
23717;DHT22;22094;52.130;5.598;2023-11-21T08:15:41;9.50;99.90
23717;DHT22;22094;52.130;5.598;2023-11-21T08:18:10;9.60;99.90
23717;DHT22;22094;52.130;5.598;2023-11-21T08:20:36;9.70;99.90
23717;DHT22;22094;52.130;5.598;2023-11-21T08:23:03;9.70;99.90
23717;DHT22;22094;52.130;5.598;2023-11-21T08:27:57;9.80;99.90
23717;DHT22;22094;52.130;5.598;2023-11-21T08:30:22;10.00;99.90
23717;DHT22;22094;52.130;5.598;2023-11-21T08:32:49;9.90;99.90
23717;DHT22;22094;52.130;5.598;2023-11-21T08:35:17;10.00;99.90
23717;DHT22;22094;52.130;5.598;2023-11-21T08:37:43;9.90;99.90
23717;DHT22;22094;52.130;5.598;2023-11-21T08:40:09;9.90;99.90
23717;DHT22;22094;52.130;5.598;2023-11-21T08:42:35;9.90;99.90
23717;DHT22;22094;52.130;5.598;2023-11-21T08:45:01;9.80;99.90
23717;DHT22;22094;52.130;5.598;2023-11-21T08:47:26;9.90;99.90
23717;DHT22;22094;52.130;5.598;2023-11-21T08:49:52;9.90;99.90
23717;DHT22;22094;52.130;5.598;2023-11-21T08:52:19;9.90;99.90
23717;DHT22;22094;52.130;5.598;2023-11-21T08:54:51;9.90;99.90
23717;DHT22;22094;52.130;5.598;2023-11-21T08:57:22;9.90;99.90
23717;DHT22;22094;52.130;5.598;2023-11-21T08:59:47;9.80;99.90
23717;DHT22;22094;52.130;5.598;2023-11-21T09:02:13;9.90;99.90
23717;DHT22;22094;52.130;5.598;2023-11-21T09:04:38;10.00;99.90
23717;DHT22;22094;52.130;5.598;2023-11-21T09:07:04;10.30;99.90
23717;DHT22;22094;52.130;5.598;2023-11-21T09:11:56;10.20;99.90
23717;DHT22;22094;52.130;5.598;2023-11-21T09:14:22;10.10;99.90
23717;DHT22;22094;52.130;5.598;2023-11-21T09:16:48;10.10;99.90
23717;DHT22;22094;52.130;5.598;2023-11-21T09:19:14;10.10;99.90
23717;DHT22;22094;52.130;5.598;2023-11-21T09:21:40;10.80;99.90
23717;DHT22;22094;52.130;5.598;2023-11-21T09:24:06;10.30;99.90
23717;DHT22;22094;52.130;5.598;2023-11-21T09:26:34;10.60;99.90
23717;DHT22;22094;52.130;5.598;2023-11-21T09:29:00;13.00;99.90
23717;DHT22;22094;52.130;5.598;2023-11-21T09:31:27;10.90;99.90
23717;DHT22;22094;52.130;5.598;2023-11-21T09:36:19;10.50;99.90
23717;DHT22;22094;52.130;5.598;2023-11-21T09:38:44;10.50;99.90
23717;DHT22;22094;52.130;5.598;2023-11-21T09:41:26;11.30;99.90
23717;DHT22;22094;52.130;5.598;2023-11-21T09:43:57;10.50;99.90
23717;DHT22;22094;52.130;5.598;2023-11-21T09:46:25;10.50;99.90
23717;DHT22;22094;52.130;5.598;2023-11-21T09:51:20;10.50;99.90
23717;DHT22;22094;52.130;5.598;2023-11-21T09:53:50;10.60;99.90
23717;DHT22;22094;52.130;5.598;2023-11-21T09:56:18;13.20;99.90
23717;DHT22;22094;52.130;5.598;2023-11-21T09:58:51;10.40;99.90
23717;DHT22;22094;52.130;5.598;2023-11-21T10:01:17;10.60;99.90
23717;DHT22;22094;52.130;5.598;2023-11-21T10:03:43;10.80;99.90
23717;DHT22;22094;52.130;5.598;2023-11-21T10:06:09;10.50;99.90
23717;DHT22;22094;52.130;5.598;2023-11-21T10:11:07;10.40;98.30
23717;DHT22;22094;52.130;5.598;2023-11-21T10:13:34;10.40;99.60
23717;DHT22;22094;52.130;5.598;2023-11-21T10:16:00;10.00;37.50
23717;DHT22;22094;52.130;5.598;2023-11-21T10:18:32;10.80;20.90
23717;DHT22;22094;52.130;5.598;2023-11-21T10:20:59;10.40;8.30
23717;DHT22;22094;52.130;5.598;2023-11-21T10:23:25;11.20;1.00
23717;DHT22;22094;52.130;5.598;2023-11-21T10:25:52;10.40;1.00
23717;DHT22;22094;52.130;5.598;2023-11-21T10:30:46;10.30;1.00
23717;DHT22;22094;52.130;5.598;2023-11-21T10:35:48;10.00;1.00
23717;DHT22;22094;52.130;5.598;2023-11-21T10:38:17;9.00;1.00
23717;DHT22;22094;52.130;5.598;2023-11-21T10:40:44;10.50;1.00
23717;DHT22;22094;52.130;5.598;2023-11-21T10:45:37;10.60;1.00
23717;DHT22;22094;52.130;5.598;2023-11-21T10:48:06;10.50;1.00
23717;DHT22;22094;52.130;5.598;2023-11-21T10:50:36;10.50;1.00
23717;DHT22;22094;52.130;5.598;2023-11-21T10:53:03;10.50;1.00
23717;DHT22;22094;52.130;5.598;2023-11-21T10:55:30;10.50;1.00
23717;DHT22;22094;52.130;5.598;2023-11-21T10:57:59;10.40;1.00
23717;DHT22;22094;52.130;5.598;2023-11-21T11:00:26;10.40;1.00
23717;DHT22;22094;52.130;5.598;2023-11-21T11:02:53;10.30;1.00
23717;DHT22;22094;52.130;5.598;2023-11-21T11:05:27;10.40;1.00
23717;DHT22;22094;52.130;5.598;2023-11-21T11:08:05;10.50;1.00
23717;DHT22;22094;52.130;5.598;2023-11-21T11:10:31;10.50;1.00
23717;DHT22;22094;52.130;5.598;2023-11-21T11:12:58;10.40;1.00
23717;DHT22;22094;52.130;5.598;2023-11-21T11:15:27;10.10;1.00
23717;DHT22;22094;52.130;5.598;2023-11-21T11:17:53;10.70;1.00
23717;DHT22;22094;52.130;5.598;2023-11-21T11:20:31;10.40;1.00
23717;DHT22;22094;52.130;5.598;2023-11-21T11:25:35;10.50;1.00
23717;DHT22;22094;52.130;5.598;2023-11-21T11:28:07;10.50;1.00
23717;DHT22;22094;52.130;5.598;2023-11-21T11:30:53;10.60;1.00
23717;DHT22;22094;52.130;5.598;2023-11-21T11:33:43;9.30;1.00
23717;DHT22;22094;52.130;5.598;2023-11-21T11:38:45;13.40;1.00
23717;DHT22;22094;52.130;5.598;2023-11-21T11:41:11;10.40;1.00
23717;DHT22;22094;52.130;5.598;2023-11-21T11:46:11;10.50;1.00
23717;DHT22;22094;52.130;5.598;2023-11-21T11:48:43;10.40;1.00
23717;DHT22;22094;52.130;5.598;2023-11-21T11:51:16;8.00;1.00
23717;DHT22;22094;52.130;5.598;2023-11-21T11:53:47;13.40;1.00
23717;DHT22;22094;52.130;5.598;2023-11-21T11:56:32;13.50;1.00
23717;DHT22;22094;52.130;5.598;2023-11-21T11:59:04;10.30;1.00
23717;DHT22;22094;52.130;5.598;2023-11-21T12:01:33;10.50;1.00
23717;DHT22;22094;52.130;5.598;2023-11-21T12:06:41;10.50;1.00
23717;DHT22;22094;52.130;5.598;2023-11-21T12:09:18;10.00;1.00
23717;DHT22;22094;52.130;5.598;2023-11-21T12:11:45;10.40;1.00
23717;DHT22;22094;52.130;5.598;2023-11-21T12:14:13;10.50;1.00
23717;DHT22;22094;52.130;5.598;2023-11-21T12:19:05;10.40;1.00
23717;DHT22;22094;52.130;5.598;2023-11-21T12:21:31;10.30;1.00
23717;DHT22;22094;52.130;5.598;2023-11-21T12:26:24;10.40;1.00
23717;DHT22;22094;52.130;5.598;2023-11-21T12:28:53;10.70;1.00
23717;DHT22;22094;52.130;5.598;2023-11-21T12:31:25;10.00;1.00
23717;DHT22;22094;52.130;5.598;2023-11-21T12:33:50;10.60;1.00
23717;DHT22;22094;52.130;5.598;2023-11-21T12:36:16;13.10;1.00
23717;DHT22;22094;52.130;5.598;2023-11-21T12:38:42;10.30;1.00
23717;DHT22;22094;52.130;5.598;2023-11-21T12:41:09;10.30;1.00
23717;DHT22;22094;52.130;5.598;2023-11-21T12:43:35;10.40;1.00
23717;DHT22;22094;52.130;5.598;2023-11-21T12:46:08;10.30;1.00
23717;DHT22;22094;52.130;5.598;2023-11-21T12:48:39;9.40;1.00
23717;DHT22;22094;52.130;5.598;2023-11-21T12:51:07;11.30;1.00
23717;DHT22;22094;52.130;5.598;2023-11-21T12:53:34;10.70;1.00
23717;DHT22;22094;52.130;5.598;2023-11-21T12:56:05;13.60;1.00
23717;DHT22;22094;52.130;5.598;2023-11-21T12:58:31;10.50;1.00
23717;DHT22;22094;52.130;5.598;2023-11-21T13:00:59;10.50;1.00
23717;DHT22;22094;52.130;5.598;2023-11-21T13:03:25;10.40;1.00
23717;DHT22;22094;52.130;5.598;2023-11-21T13:05:53;10.40;1.00
23717;DHT22;22094;52.130;5.598;2023-11-21T13:08:24;10.40;1.00
23717;DHT22;22094;52.130;5.598;2023-11-21T13:10:55;10.40;1.00
23717;DHT22;22094;52.130;5.598;2023-11-21T13:13:21;10.40;1.00
23717;DHT22;22094;52.130;5.598;2023-11-21T13:15:52;10.40;1.00
23717;DHT22;22094;52.130;5.598;2023-11-21T13:18:19;10.30;1.00
23717;DHT22;22094;52.130;5.598;2023-11-21T13:20:47;10.20;1.00
23717;DHT22;22094;52.130;5.598;2023-11-21T13:23:13;10.30;1.00
23717;DHT22;22094;52.130;5.598;2023-11-21T13:25:41;9.80;1.00
23717;DHT22;22094;52.130;5.598;2023-11-21T13:28:07;12.10;1.00
23717;DHT22;22094;52.130;5.598;2023-11-21T13:30:33;10.30;1.00
23717;DHT22;22094;52.130;5.598;2023-11-21T13:32:59;10.30;1.00
23717;DHT22;22094;52.130;5.598;2023-11-21T13:35:32;10.30;1.00
23717;DHT22;22094;52.130;5.598;2023-11-21T13:38:14;10.30;1.00
23717;DHT22;22094;52.130;5.598;2023-11-21T13:40:46;10.60;1.00
23717;DHT22;22094;52.130;5.598;2023-11-21T13:43:13;10.20;99.90
23717;DHT22;22094;52.130;5.598;2023-11-21T13:45:40;10.00;1.00
23717;DHT22;22094;52.130;5.598;2023-11-21T13:48:06;10.30;1.00
23717;DHT22;22094;52.130;5.598;2023-11-21T13:50:47;10.20;1.00
23717;DHT22;22094;52.130;5.598;2023-11-21T13:53:38;10.10;99.90
23717;DHT22;22094;52.130;5.598;2023-11-21T13:56:07;10.10;99.90
23717;DHT22;22094;52.130;5.598;2023-11-21T13:58:32;10.10;99.90
23717;DHT22;22094;52.130;5.598;2023-11-21T14:01:13;10.00;99.90
23717;DHT22;22094;52.130;5.598;2023-11-21T14:04:02;10.10;1.00
23717;DHT22;22094;52.130;5.598;2023-11-21T14:06:37;10.60;99.90
23717;DHT22;22094;52.130;5.598;2023-11-21T14:09:14;10.00;99.90
23717;DHT22;22094;52.130;5.598;2023-11-21T14:11:54;10.00;99.90
23717;DHT22;22094;52.130;5.598;2023-11-21T14:14:22;9.80;99.90
23717;DHT22;22094;52.130;5.598;2023-11-21T14:16:47;9.80;99.90
23717;DHT22;22094;52.130;5.598;2023-11-21T14:19:13;9.70;99.90
23717;DHT22;22094;52.130;5.598;2023-11-21T14:21:41;9.70;1.00
23717;DHT22;22094;52.130;5.598;2023-11-21T14:24:11;9.60;1.00
23717;DHT22;22094;52.130;5.598;2023-11-21T14:26:39;9.60;1.00
23717;DHT22;22094;52.130;5.598;2023-11-21T14:29:05;9.60;1.00
23717;DHT22;22094;52.130;5.598;2023-11-21T14:31:31;9.60;1.00
23717;DHT22;22094;52.130;5.598;2023-11-21T14:33:57;9.50;1.00
23717;DHT22;22094;52.130;5.598;2023-11-21T14:36:23;9.50;1.00
23717;DHT22;22094;52.130;5.598;2023-11-21T14:38:49;9.70;1.00
23717;DHT22;22094;52.130;5.598;2023-11-21T14:41:15;9.50;1.00
23717;DHT22;22094;52.130;5.598;2023-11-21T14:43:40;9.50;1.00
23717;DHT22;22094;52.130;5.598;2023-11-21T14:46:07;10.10;1.00
23717;DHT22;22094;52.130;5.598;2023-11-21T14:48:35;9.50;1.00
23717;DHT22;22094;52.130;5.598;2023-11-21T14:51:28;9.50;1.00
23717;DHT22;22094;52.130;5.598;2023-11-21T14:53:58;9.40;99.90
23717;DHT22;22094;52.130;5.598;2023-11-21T14:56:32;9.20;99.90
23717;DHT22;22094;52.130;5.598;2023-11-21T14:59:00;9.20;1.00
23717;DHT22;22094;52.130;5.598;2023-11-21T15:01:31;9.10;99.90
23717;DHT22;22094;52.130;5.598;2023-11-21T15:04:42;9.10;1.00
23717;DHT22;22094;52.130;5.598;2023-11-21T15:07:09;9.00;99.90
23717;DHT22;22094;52.130;5.598;2023-11-21T15:09:36;9.00;26.20
23717;DHT22;22094;52.130;5.598;2023-11-21T15:12:06;9.20;99.90
23717;DHT22;22094;52.130;5.598;2023-11-21T15:14:47;8.90;1.00
23717;DHT22;22094;52.130;5.598;2023-11-21T15:17:15;8.90;99.90
23717;DHT22;22094;52.130;5.598;2023-11-21T15:19:48;8.80;1.00
23717;DHT22;22094;52.130;5.598;2023-11-21T15:22:17;8.80;99.90
23717;DHT22;22094;52.130;5.598;2023-11-21T15:25:13;8.80;99.90
23717;DHT22;22094;52.130;5.598;2023-11-21T15:27:39;8.70;83.60
23717;DHT22;22094;52.130;5.598;2023-11-21T15:30:06;8.70;1.00
23717;DHT22;22094;52.130;5.598;2023-11-21T15:32:32;8.70;90.60
23717;DHT22;22094;52.130;5.598;2023-11-21T15:34:58;8.60;99.90
23717;DHT22;22094;52.130;5.598;2023-11-21T15:37:23;9.10;99.90
23717;DHT22;22094;52.130;5.598;2023-11-21T15:39:51;8.60;1.00
23717;DHT22;22094;52.130;5.598;2023-11-21T15:42:17;8.50;99.00
23717;DHT22;22094;52.130;5.598;2023-11-21T15:44:42;8.40;1.00
23717;DHT22;22094;52.130;5.598;2023-11-21T15:47:08;8.40;1.00
23717;DHT22;22094;52.130;5.598;2023-11-21T15:49:34;8.30;1.00
23717;DHT22;22094;52.130;5.598;2023-11-21T15:52:02;8.20;1.00
23717;DHT22;22094;52.130;5.598;2023-11-21T15:54:28;8.20;1.00
23717;DHT22;22094;52.130;5.598;2023-11-21T15:56:55;8.20;99.90
23717;DHT22;22094;52.130;5.598;2023-11-21T15:59:23;8.50;1.00
23717;DHT22;22094;52.130;5.598;2023-11-21T16:01:57;8.60;99.90
23717;DHT22;22094;52.130;5.598;2023-11-21T16:04:23;8.30;99.90
23717;DHT22;22094;52.130;5.598;2023-11-21T16:06:49;7.80;1.00
23717;DHT22;22094;52.130;5.598;2023-11-21T16:09:14;8.20;1.00
23717;DHT22;22094;52.130;5.598;2023-11-21T16:11:54;8.60;1.00
23717;DHT22;22094;52.130;5.598;2023-11-21T16:14:22;8.20;99.90
23717;DHT22;22094;52.130;5.598;2023-11-21T16:16:52;8.20;1.00
23717;DHT22;22094;52.130;5.598;2023-11-21T16:19:18;8.90;1.00
23717;DHT22;22094;52.130;5.598;2023-11-21T16:21:47;8.20;1.00
23717;DHT22;22094;52.130;5.598;2023-11-21T16:24:13;7.70;1.00